createdAt,value
2023-03-23T16:02:27.672Z,20.10
2023-03-23T16:07:29.110Z,22.75
2023-03-23T16:12:30.469Z,24.73
2023-03-23T16:17:33.329Z,23.63
2023-03-23T16:22:34.737Z,25.85
2023-03-23T16:27:36.660Z,21.92
2023-03-23T16:37:38.656Z,25.20
2023-03-23T16:42:40.231Z,30.95
2023-03-23T16:47:42.007Z,20.80
2023-03-23T16:52:46.347Z,21.25
2023-03-23T16:57:48.501Z,19.75
2023-03-23T17:02:51.883Z,20.58
2023-03-23T17:07:55.496Z,25.97
2023-03-23T17:12:57.243Z,24.83
2023-03-23T17:17:58.899Z,25.80
2023-03-23T17:23:00.704Z,21.27
2023-03-23T17:28:05.965Z,18.35
2023-03-23T17:33:08.729Z,23.83
2023-03-23T17:38:10.174Z,21.95
2023-03-23T17:43:11.555Z,22.58
2023-03-23T17:48:13.219Z,25.75
2023-03-23T17:53:15.065Z,23.35
2023-03-23T17:58:16.716Z,24.17
2023-03-23T18:03:18.175Z,22.55
2023-03-23T18:08:19.627Z,19.85
2023-03-23T18:13:21.515Z,25.58
2023-03-23T18:18:23.635Z,23.77
2023-03-23T18:23:25.239Z,28.42
2023-03-23T18:28:27.568Z,22.02
2023-03-23T18:33:28.946Z,24.65
2023-03-23T18:38:30.704Z,18.38
2023-03-23T18:43:32.171Z,27.08
2023-03-23T18:48:33.630Z,21.23
2023-03-23T18:53:35.175Z,26.35
2023-03-23T18:58:36.805Z,26.92
2023-03-23T19:03:39.045Z,25.50
2023-03-23T19:08:40.854Z,27.85
2023-03-23T19:13:58.356Z,22.70
2023-03-23T19:19:03.204Z,22.90
2023-03-23T19:24:05.082Z,19.85
2023-03-23T19:34:11.924Z,25.75
2023-03-23T19:39:13.517Z,23.48
2023-03-23T19:44:14.926Z,21.50
2023-03-23T19:49:16.417Z,23.58
2023-03-23T19:54:18.071Z,23.13
2023-03-23T19:59:19.430Z,21.30
2023-03-23T20:04:21.414Z,21.05
2023-03-23T20:09:22.809Z,23.33
2023-03-23T20:14:25.737Z,15.38
2023-03-23T20:19:28.630Z,17.10
2023-03-23T20:24:30.016Z,17.90
2023-03-23T20:29:32.718Z,14.55
2023-03-23T20:34:36.184Z,14.27
2023-03-23T20:39:37.615Z,9.75
2023-03-23T20:44:39.489Z,14.45
2023-03-23T20:49:40.952Z,7.15
2023-03-23T20:54:42.673Z,12.80
2023-03-23T20:59:44.213Z,12.18
2023-03-23T21:04:45.879Z,11.27
2023-03-23T21:09:47.220Z,9.18
2023-03-23T21:14:48.597Z,10.55
2023-03-23T21:19:50.065Z,7.07
2023-03-23T21:24:51.448Z,11.13
2023-03-23T21:29:55.996Z,10.98
2023-03-23T21:40:04.772Z,9.75
2023-03-23T21:45:06.488Z,5.72
2023-03-23T21:50:08.514Z,6.38
2023-03-23T21:55:13.141Z,10.43
2023-03-23T22:00:15.031Z,6.70
2023-03-23T22:05:16.909Z,7.13
2023-03-23T22:10:18.529Z,9.32
2023-03-23T22:15:20.696Z,5.97
2023-03-23T22:20:22.278Z,6.55
2023-03-23T22:25:24.193Z,11.18
2023-03-23T22:30:29.628Z,7.30
2023-03-23T22:35:33.548Z,4.97
2023-03-23T22:40:34.989Z,7.40
2023-03-23T22:45:36.638Z,5.15
2023-03-23T22:50:38.065Z,8.20
2023-03-23T22:55:43.870Z,8.93
2023-03-23T23:00:47.315Z,8.35
2023-03-23T23:05:49.915Z,9.77
2023-03-23T23:10:52.320Z,9.75
2023-03-23T23:15:54.846Z,11.35
2023-03-23T23:20:57.755Z,9.13
2023-03-23T23:25:59.147Z,8.10
2023-03-23T23:31:00.615Z,9.25
2023-03-23T23:36:02.729Z,11.23
2023-03-23T23:41:04.496Z,9.95
2023-03-23T23:46:05.981Z,12.68
2023-03-23T23:51:07.889Z,12.43
2023-03-23T23:56:09.775Z,14.40
